CDT,Max TemperatureF,Mean TemperatureF,Min TemperatureF,Max Dew PointF,MeanDew PointF,Min DewpointF,Max Humidity, Mean Humidity, Min Humidity, Max Sea Level PressureIn, Mean Sea Level PressureIn, Min Sea Level PressureIn, Max VisibilityMiles, Mean VisibilityMiles, Min VisibilityMiles, Max Wind SpeedMPH, Mean Wind SpeedMPH, Max Gust SpeedMPH,PrecipitationIn, CloudCover, Events, WindDirDegrees
2013-10-1,95,86,77,77,74,71,90,71,46,29.90,29.84,29.79,10,8,4,14,3,20,0.00,1,,158
2013-10-2,95,86,76,75,71,64,90,68,36,29.92,29.87,29.82,10,8,5,12,3,17,0.00,0,,156
2013-10-3,95,84,73,74,70,65,91,69,37,29.91,29.87,29.81,10,9,3,13,3,16,0.00,1,,146
2013-10-4,94,84,74,74,70,67,90,69,42,29.90,29.86,29.81,10,9,4,16,4,21,0.00,1,,153
2013-10-5,95,84,73,75,70,66,90,68,38,29.93,29.87,29.81,10,8,3,15,2,17,0.00,1,,146
2013-10-6,78,71,62,73,62,54,87,70,53,30.14,30.04,29.93,10,8,5,17,4,24,0.00,4,,338
2013-10-7,88,72,57,55,45,32,76,45,14,30.17,30.11,30.05,10,8,5,9,3,9,0.00,0,,334
2013-10-8,88,72,56,61,51,45,79,52,23,30.10,30.03,29.96,10,8,5,12,1,,0.00,0,,109
2013-10-9,90,75,60,64,60,56,87,64,33,30.02,29.97,29.91,10,7,5,12,2,21,0.00,0,,149
2013-10-10,92,78,64,72,64,56,87,65,29,30.00,29.94,29.86,10,8,5,17,4,21,0.00,1,,140
2013-10-11,95,86,76,75,72,69,89,68,42,29.90,29.85,29.79,10,7,4,17,7,23,0.00,3,,147
2013-10-12,95,86,78,77,73,67,90,69,40,29.99,29.91,29.87,10,6,3,18,4,25,0.00,3,,153
2013-10-13,95,85,76,76,72,67,91,69,43,30.07,30.00,29.93,10,8,3,20,4,24,0.00,2,,138
2013-10-14,92,82,73,73,69,62,88,68,37,30.05,29.98,29.89,10,8,5,14,2,21,0.05,1,,143
2013-10-15,93,82,71,72,69,63,89,65,37,29.96,29.90,29.82,10,8,5,13,3,18,0.00,1,,145
2013-10-16,93,82,70,73,68,60,90,67,39,30.03,29.92,29.87,10,8,5,17,3,22,0.00,3,,332
2013-10-17,70,67,64,64,61,59,89,79,70,30.10,30.03,29.97,10,9,5,15,4,18,0.06,8,Rain-Thunderstorm,353
2013-10-18,90,79,68,70,66,64,88,68,42,29.99,29.88,29.77,10,8,5,8,0,,0.09,3,,0
2013-10-19,79,73,65,72,62,56,87,66,43,30.10,30.02,29.89,10,8,5,21,6,26,0.00,5,,18
2013-10-20,84,71,58,65,56,47,75,58,42,30.09,29.99,29.88,10,9,5,12,1,,0.00,5,,105
2013-10-21,88,80,72,72,69,65,88,73,49,29.96,29.88,29.82,10,7,4,13,0,20,0.09,6,Rain-Thunderstorm,44
2013-10-22,84,74,64,68,62,53,91,69,38,30.12,30.05,29.96,10,7,2,16,4,20,0.00,4,Rain,344
2013-10-23,84,68,52,56,49,45,79,56,28,30.18,30.13,30.09,10,9,5,13,1,18,0.00,0,,88
2013-10-24,87,71,56,58,55,50,88,61,28,30.20,30.15,30.11,10,9,7,13,1,,0.06,1,,111
2013-10-25,87,73,59,68,60,56,89,65,36,30.25,30.19,30.15,10,9,7,20,3,24,0.00,2,Rain,101
2013-10-26,89,78,66,66,62,56,88,62,33,30.18,30.11,30.05,10,9,5,18,3,24,0.00,3,,140
2013-10-27,90,76,64,68,64,60,90,67,37,30.08,30.02,29.96,10,8,5,12,1,,0.00,2,,150
2013-10-28,92,80,68,71,68,65,90,70,41,30.04,29.99,29.93,10,8,5,20,5,28,0.00,1,,140
2013-10-29,92,83,74,73,69,64,88,65,40,30.06,30.00,29.93,10,8,4,18,10,25,0.00,2,,138
2013-10-30,93,84,77,74,72,69,85,70,47,29.99,29.90,29.80,10,9,5,24,11,32,0.00,4,,153
2013-10-31,176,84,77,76,71,60,87,66,33,29.87,29.83,29.78,10,8,4,16,10,22,0.02,3,Rain-Thunderstorm,227